createdAt,value
2019-02-24T00:01:15.001Z,51.37
2019-02-24T00:03:45.619Z,51.57
2019-02-24T00:06:16.112Z,51.94
2019-02-24T00:08:47.197Z,51.41
2019-02-24T00:11:17.668Z,51.76
2019-02-24T00:13:48.169Z,51.73
2019-02-24T00:16:18.722Z,51.95
2019-02-24T00:18:49.639Z,51.79
2019-02-24T00:21:20.442Z,52.02
2019-02-24T00:23:51.243Z,52.50
2019-02-24T00:26:21.725Z,52.25
2019-02-24T00:28:52.269Z,52.54
2019-02-24T00:31:22.902Z,52.32
2019-02-24T00:33:53.385Z,52.03
2019-02-24T00:36:23.878Z,51.47
2019-02-24T00:38:54.693Z,50.76
2019-02-24T00:41:25.309Z,50.74
2019-02-24T00:43:55.813Z,50.49
2019-02-24T00:46:26.670Z,50.29
2019-02-24T00:48:57.183Z,50.32
2019-02-24T00:51:27.671Z,50.11
2019-02-24T00:53:58.430Z,49.92
2019-02-24T00:56:28.945Z,50.29
2019-02-24T00:58:59.433Z,50.50
2019-02-24T01:01:30.079Z,50.07
2019-02-24T01:04:00.542Z,50.24
2019-02-24T01:06:31.025Z,49.99
2019-02-24T01:09:02.107Z,50.11
2019-02-24T01:11:32.610Z,50.71
2019-02-24T01:14:03.401Z,50.10
2019-02-24T01:16:34.236Z,50.33
2019-02-24T01:19:04.960Z,49.85
2019-02-24T01:21:35.713Z,49.83
2019-02-24T01:24:06.293Z,49.85
2019-02-24T01:26:37.056Z,49.57
2019-02-24T01:29:07.560Z,49.65
2019-02-24T01:31:38.133Z,49.38
2019-02-24T01:34:08.617Z,49.46
2019-02-24T01:36:39.337Z,49.29
2019-02-24T01:39:10.085Z,49.02
2019-02-24T01:41:40.619Z,50.03
2019-02-24T01:44:11.151Z,49.24
2019-02-24T01:46:41.952Z,49.07
2019-02-24T01:49:12.444Z,48.94
2019-02-24T01:51:42.942Z,49.26
2019-02-24T01:54:13.480Z,49.14
2019-02-24T01:56:44.502Z,48.90
2019-02-24T01:59:15.213Z,49.20
2019-02-24T02:01:45.761Z,49.03
2019-02-24T02:04:16.328Z,49.07
2019-02-24T02:06:47.076Z,49.67
2019-02-24T02:09:17.589Z,49.50
2019-02-24T02:11:48.101Z,49.42
2019-02-24T02:14:18.853Z,49.21
2019-02-24T02:16:49.703Z,49.62
2019-02-24T02:19:20.414Z,49.12
2019-02-24T02:21:51.176Z,49.43
2019-02-24T02:24:21.683Z,49.09
2019-02-24T02:26:52.166Z,48.47
2019-02-24T02:29:22.644Z,48.41
2019-02-24T02:31:53.205Z,47.83
2019-02-24T02:34:23.944Z,48.20
2019-02-24T02:36:54.977Z,48.15
2019-02-24T02:39:25.502Z,47.82
2019-02-24T02:41:56.053Z,47.84
2019-02-24T02:44:27.397Z,47.60
2019-02-24T02:46:57.916Z,47.85
2019-02-24T02:49:28.409Z,47.74
2019-02-24T02:51:58.903Z,47.69
2019-02-24T02:54:29.649Z,47.46
2019-02-24T02:57:00.128Z,47.55
2019-02-24T02:59:30.655Z,47.94
2019-02-24T03:02:01.477Z,48.03
2019-02-24T03:04:32.084Z,47.13
2019-02-24T03:07:13.992Z,47.10
2019-02-24T03:09:44.499Z,48.19
2019-02-24T03:12:15.003Z,48.10
2019-02-24T03:14:45.505Z,47.79
2019-02-24T03:17:15.989Z,47.43
2019-02-24T03:19:46.734Z,46.75
2019-02-24T03:22:17.285Z,47.01
2019-02-24T03:24:48.029Z,46.39
2019-02-24T03:27:18.537Z,46.03
2019-02-24T03:29:49.151Z,46.07
2019-02-24T03:32:19.653Z,46.04
2019-02-24T03:34:50.179Z,46.22
2019-02-24T03:37:20.754Z,46.22
2019-02-24T03:39:51.245Z,46.06
2019-02-24T03:42:22.138Z,46.26
2019-02-24T03:44:52.920Z,45.50
2019-02-24T03:47:23.393Z,45.56
2019-02-24T03:49:54.027Z,45.43
2019-02-24T03:52:24.492Z,45.42
2019-02-24T03:54:55.029Z,45.44
2019-02-24T03:57:25.808Z,45.40
2019-02-24T03:59:56.565Z,45.60
2019-02-24T04:02:27.040Z,45.39
2019-02-24T04:04:57.772Z,45.02
2019-02-24T04:07:28.485Z,45.12
2019-02-24T04:09:59.249Z,44.72
2019-02-24T04:12:29.799Z,45.33
2019-02-24T04:15:00.340Z,45.11
2019-02-24T04:17:30.767Z,45.32
2019-02-24T04:20:01.339Z,45.76
2019-02-24T04:22:31.788Z,45.29
2019-02-24T04:25:03.019Z,44.83
2019-02-24T04:27:34.437Z,45.65
2019-02-24T04:30:05.188Z,45.37
2019-02-24T04:32:35.671Z,45.12
2019-02-24T04:35:06.507Z,45.32
2019-02-24T04:37:37.213Z,44.98
2019-02-24T04:40:07.917Z,45.39
2019-02-24T04:42:38.631Z,45.75
2019-02-24T04:45:09.125Z,46.30
2019-02-24T04:47:39.895Z,46.00
2019-02-24T04:50:10.420Z,45.79
2019-02-24T04:52:40.933Z,47.42
2019-02-24T04:55:11.428Z,46.64
2019-02-24T04:57:42.486Z,46.69
2019-02-24T05:00:14.194Z,46.77
2019-02-24T05:02:44.638Z,46.96
2019-02-24T05:05:15.287Z,47.19
2019-02-24T05:07:45.792Z,47.46
2019-02-24T05:10:16.294Z,48.96
2019-02-24T05:12:46.834Z,47.42
2019-02-24T05:15:17.318Z,47.72
2019-02-24T05:17:47.802Z,47.33
2019-02-24T05:20:18.296Z,48.00
2019-02-24T05:22:49.060Z,49.13
2019-02-24T05:25:19.536Z,47.83
2019-02-24T05:27:50.073Z,47.23
2019-02-24T05:30:20.560Z,47.75
2019-02-24T05:32:51.080Z,47.34
2019-02-24T05:35:21.593Z,46.67
2019-02-24T05:37:52.633Z,47.40
2019-02-24T05:40:23.169Z,46.86
2019-02-24T05:42:53.767Z,46.68
2019-02-24T05:45:24.338Z,45.77
2019-02-24T05:47:55.109Z,46.38
2019-02-24T05:50:25.646Z,46.02
2019-02-24T05:52:56.179Z,46.33
2019-02-24T05:55:26.743Z,45.81
2019-02-24T05:57:57.808Z,47.41
2019-02-24T06:00:28.542Z,46.02
2019-02-24T06:02:59.047Z,46.17
2019-02-24T06:05:29.557Z,46.48
2019-02-24T06:08:00.182Z,46.11
2019-02-24T06:10:30.981Z,46.28
2019-02-24T06:13:01.804Z,46.07
2019-02-24T06:15:32.549Z,46.04
2019-02-24T06:18:03.578Z,46.17
2019-02-24T06:20:34.078Z,45.96
2019-02-24T06:23:04.850Z,45.90
2019-02-24T06:25:35.351Z,45.81
2019-02-24T06:28:05.917Z,45.94
2019-02-24T06:30:36.623Z,46.55
2019-02-24T06:33:07.102Z,46.71
2019-02-24T06:35:37.615Z,46.04
2019-02-24T06:38:08.096Z,45.96
2019-02-24T06:40:38.605Z,45.72
2019-02-24T06:43:09.220Z,45.78
2019-02-24T06:45:41.218Z,45.43
2019-02-24T06:48:11.714Z,45.93
2019-02-24T06:50:54.947Z,45.51
2019-02-24T06:53:25.950Z,45.49
2019-02-24T06:55:56.759Z,44.88
2019-02-24T06:58:27.280Z,44.70
2019-02-24T07:00:58.107Z,44.48
2019-02-24T07:03:28.585Z,43.80
2019-02-24T07:05:59.132Z,43.79
2019-02-24T07:08:29.882Z,42.93
2019-02-24T07:11:00.939Z,42.55
2019-02-24T07:13:31.807Z,42.17
2019-02-24T07:16:03.127Z,42.28
2019-02-24T07:18:33.592Z,41.63
2019-02-24T07:21:04.823Z,41.21
2019-02-24T07:23:36.548Z,40.76
2019-02-24T07:26:07.341Z,40.14
2019-02-24T07:28:37.974Z,39.92
2019-02-24T07:31:08.472Z,40.42
2019-02-24T07:33:38.999Z,39.61
2019-02-24T07:36:09.579Z,39.10
2019-02-24T07:38:40.105Z,39.46
2019-02-24T07:41:10.574Z,38.02
2019-02-24T07:43:41.390Z,38.52
2019-02-24T07:46:12.646Z,37.83
2019-02-24T07:48:43.227Z,37.77
2019-02-24T07:51:13.760Z,37.77
2019-02-24T07:53:44.228Z,37.23
2019-02-24T07:56:14.710Z,36.56
2019-02-24T07:58:45.295Z,35.37
2019-02-24T08:01:16.055Z,35.18
2019-02-24T08:03:46.920Z,34.68
2019-02-24T08:06:17.477Z,35.14
2019-02-24T08:08:48.049Z,34.10
2019-02-24T08:11:18.762Z,33.85
2019-02-24T08:13:49.286Z,33.91
2019-02-24T08:16:19.789Z,33.30
2019-02-24T08:18:51.980Z,33.04
2019-02-24T08:21:22.655Z,32.35
2019-02-24T08:23:53.677Z,31.90
2019-02-24T08:26:24.176Z,31.38
2019-02-24T08:28:54.709Z,31.24
2019-02-24T08:31:25.434Z,30.36
2019-02-24T08:33:55.956Z,31.07
2019-02-24T08:36:26.548Z,30.23
2019-02-24T08:38:57.033Z,29.76
2019-02-24T08:41:27.804Z,29.95
2019-02-24T08:43:58.614Z,29.95
2019-02-24T08:46:29.114Z,29.42
2019-02-24T08:48:59.895Z,28.48
2019-02-24T08:51:30.401Z,28.64
2019-02-24T08:54:01.150Z,28.61
2019-02-24T08:56:31.609Z,28.01
2019-02-24T08:59:02.320Z,27.18
2019-02-24T09:01:32.799Z,26.91
2019-02-24T09:04:03.306Z,28.09
2019-02-24T09:06:34.355Z,26.99
2019-02-24T09:09:05.082Z,26.49
2019-02-24T09:11:35.746Z,25.82
2019-02-24T09:14:06.533Z,25.15
2019-02-24T09:16:37.019Z,25.25
2019-02-24T09:19:07.509Z,25.69
2019-02-24T09:21:38.107Z,25.51
2019-02-24T09:24:08.614Z,26.14
2019-02-24T09:26:39.364Z,25.80
2019-02-24T09:29:09.910Z,25.17
2019-02-24T09:31:40.410Z,25.07
2019-02-24T09:34:10.952Z,25.51
2019-02-24T09:36:41.494Z,23.79
2019-02-24T09:39:12.054Z,23.78
2019-02-24T09:41:42.528Z,23.42
2019-02-24T09:44:13.124Z,24.18
2019-02-24T09:46:43.654Z,23.46
2019-02-24T09:49:14.242Z,23.72
2019-02-24T09:51:45.393Z,24.11
2019-02-24T09:54:15.904Z,23.05
2019-02-24T09:56:46.682Z,22.45
2019-02-24T09:59:17.206Z,24.00
2019-02-24T10:01:47.707Z,22.25
2019-02-24T10:04:18.258Z,23.12
2019-02-24T10:06:48.888Z,23.26
2019-02-24T10:09:19.410Z,22.32
2019-02-24T10:11:49.894Z,22.18
2019-02-24T10:14:20.827Z,22.45
2019-02-24T10:16:51.657Z,21.76
2019-02-24T10:19:22.198Z,22.10
2019-02-24T10:21:52.919Z,21.73
2019-02-24T10:24:23.401Z,21.66
2019-02-24T10:26:53.920Z,21.67
2019-02-24T10:29:24.461Z,21.93
2019-02-24T10:31:55.382Z,20.99
2019-02-24T10:34:26.420Z,20.55
2019-02-24T10:36:57.188Z,20.70
2019-02-24T10:39:29.840Z,21.47
2019-02-24T10:42:00.553Z,21.76
2019-02-24T10:44:32.008Z,20.84
2019-02-24T10:47:02.960Z,19.84
2019-02-24T10:49:33.565Z,20.28
2019-02-24T10:52:04.304Z,19.29
2019-02-24T10:54:34.893Z,19.38
2019-02-24T10:57:08.560Z,19.37
2019-02-24T10:59:38.713Z,19.00
2019-02-24T11:02:09.535Z,19.92
2019-02-24T11:04:40.501Z,19.30
2019-02-24T11:07:11.367Z,19.27
2019-02-24T11:09:42.619Z,19.71
2019-02-24T11:12:13.435Z,19.40
2019-02-24T11:14:44.704Z,19.22
2019-02-24T11:17:15.563Z,19.83
2019-02-24T11:19:46.794Z,18.96
2019-02-24T11:22:17.422Z,18.88
2019-02-24T11:24:48.306Z,18.37
2019-02-24T11:27:18.925Z,18.90
2019-02-24T11:29:49.577Z,19.08
2019-02-24T11:32:20.139Z,18.38
2019-02-24T11:34:50.705Z,18.43
2019-02-24T11:37:21.458Z,18.57
2019-02-24T11:39:52.395Z,18.52
2019-02-24T11:42:23.083Z,18.05
2019-02-24T11:44:53.875Z,17.37
2019-02-24T11:47:24.815Z,17.41
2019-02-24T11:49:55.953Z,17.97
2019-02-24T11:52:26.693Z,18.09
2019-02-24T11:54:57.787Z,18.18
2019-02-24T11:57:28.420Z,17.14
2019-02-24T11:59:59.145Z,17.70
2019-02-24T12:02:34.456Z,17.43
2019-02-24T12:05:02.601Z,17.40
2019-02-24T12:07:33.431Z,17.07
2019-02-24T12:10:04.013Z,16.46
2019-02-24T12:12:35.414Z,16.84
2019-02-24T12:15:07.162Z,17.11
2019-02-24T12:17:39.491Z,16.63
2019-02-24T12:20:12.126Z,16.73
2019-02-24T12:22:42.842Z,16.20
2019-02-24T12:25:13.573Z,15.65
2019-02-24T12:27:44.300Z,15.97
2019-02-24T12:30:15.025Z,15.77
2019-02-24T12:32:45.723Z,15.72
2019-02-24T12:35:16.347Z,15.51
2019-02-24T12:37:47.384Z,15.59
2019-02-24T12:40:18.383Z,15.31
2019-02-24T12:42:49.048Z,15.09
2019-02-24T12:45:19.693Z,15.04
2019-02-24T12:47:50.452Z,14.39
2019-02-24T12:50:21.297Z,15.25
2019-02-24T12:52:52.215Z,14.55
2019-02-24T12:55:23.247Z,14.62
2019-02-24T12:57:54.252Z,15.35
2019-02-24T13:00:25.419Z,14.62
2019-02-24T13:02:55.989Z,14.86
2019-02-24T13:05:26.747Z,14.98
2019-02-24T13:07:57.298Z,15.42
2019-02-24T13:10:27.961Z,14.91
2019-02-24T13:12:58.601Z,14.26
2019-02-24T13:15:29.357Z,13.87
2019-02-24T13:18:00.281Z,13.57
2019-02-24T13:20:31.266Z,13.58
2019-02-24T13:23:02.279Z,14.05
2019-02-24T13:25:33.037Z,14.37
2019-02-24T13:28:04.364Z,13.89
2019-02-24T13:30:36.154Z,12.88
2019-02-24T13:33:07.551Z,12.95
2019-02-24T13:35:38.333Z,12.74
2019-02-24T13:38:09.390Z,13.24
2019-02-24T13:40:40.251Z,13.42
2019-02-24T13:43:11.156Z,12.80
2019-02-24T13:45:42.040Z,13.27
2019-02-24T13:48:13.058Z,13.31
2019-02-24T13:50:44.258Z,13.55
2019-02-24T13:53:14.890Z,13.55
2019-02-24T13:55:45.628Z,13.16
2019-02-24T13:58:16.826Z,13.88
2019-02-24T14:00:47.893Z,13.78
2019-02-24T14:03:19.123Z,14.43
2019-02-24T14:05:50.122Z,12.47
2019-02-24T14:08:20.843Z,12.90
2019-02-24T14:10:51.614Z,13.24
2019-02-24T14:13:22.470Z,13.37
2019-02-24T14:15:57.071Z,13.95
2019-02-24T14:18:28.073Z,13.62
2019-02-24T14:20:58.881Z,13.61
2019-02-24T14:23:31.453Z,14.60
2019-02-24T14:26:02.093Z,14.15
2019-02-24T14:28:32.742Z,13.80
2019-02-24T14:31:03.721Z,14.26
2019-02-24T14:33:34.455Z,14.58
2019-02-24T14:36:05.166Z,13.91
2019-02-24T14:38:35.811Z,13.65
2019-02-24T14:41:08.952Z,14.16
2019-02-24T14:43:39.684Z,13.82
2019-02-24T14:46:10.472Z,14.13
2019-02-24T14:48:41.190Z,14.77
2019-02-24T14:51:12.465Z,14.57
2019-02-24T14:53:44.347Z,14.50
2019-02-24T14:56:15.426Z,14.92
2019-02-24T14:58:47.105Z,13.68
2019-02-24T15:01:17.765Z,14.82
2019-02-24T15:03:48.586Z,14.26
2019-02-24T15:06:19.157Z,14.39
2019-02-24T15:08:49.936Z,14.16
2019-02-24T15:11:20.834Z,13.82
2019-02-24T15:13:51.498Z,14.38
2019-02-24T15:16:22.419Z,14.67
2019-02-24T15:18:53.291Z,14.89
2019-02-24T15:21:24.071Z,15.42
2019-02-24T15:23:54.874Z,14.60
2019-02-24T15:26:29.156Z,15.25
2019-02-24T15:28:59.804Z,14.54
2019-02-24T15:31:33.358Z,14.50
2019-02-24T15:34:04.366Z,14.99
2019-02-24T15:36:35.019Z,14.77
2019-02-24T15:39:07.789Z,15.15
2019-02-24T15:41:40.578Z,14.37
2019-02-24T15:44:11.623Z,14.60
2019-02-24T15:46:42.338Z,14.45
2019-02-24T15:49:13.698Z,14.64
2019-02-24T15:51:44.747Z,14.60
2019-02-24T15:54:16.182Z,14.47
2019-02-24T15:56:47.101Z,15.06
2019-02-24T15:59:18.124Z,15.16
2019-02-24T16:01:48.878Z,15.38
2019-02-24T16:04:19.758Z,15.67
2019-02-24T16:06:50.781Z,14.93
2019-02-24T16:09:21.415Z,15.44
2019-02-24T16:11:52.371Z,15.65
2019-02-24T16:14:23.289Z,16.11
2019-02-24T16:16:54.440Z,16.00
2019-02-24T16:19:25.319Z,16.05
2019-02-24T16:21:55.995Z,16.67
2019-02-24T16:24:26.825Z,16.51
2019-02-24T16:26:59.001Z,16.88
2019-02-24T16:29:30.265Z,16.91
2019-02-24T16:32:01.127Z,17.16
2019-02-24T16:34:32.152Z,16.73
2019-02-24T16:37:02.872Z,16.86
2019-02-24T16:39:33.553Z,16.74
2019-02-24T16:42:04.558Z,16.98
2019-02-24T16:44:35.252Z,17.85
2019-02-24T16:47:06.054Z,17.34
2019-02-24T16:49:36.993Z,18.30
2019-02-24T16:52:10.095Z,17.54
2019-02-24T16:54:40.936Z,17.51
2019-02-24T16:57:11.671Z,18.29
2019-02-24T16:59:42.182Z,18.33
2019-02-24T17:02:12.936Z,19.20
2019-02-24T17:04:43.455Z,20.21
2019-02-24T17:07:16.847Z,19.86
2019-02-24T17:09:47.376Z,19.65
2019-02-24T17:12:17.870Z,19.47
2019-02-24T17:14:49.672Z,21.46
2019-02-24T17:17:20.333Z,21.14
2019-02-24T17:19:50.979Z,20.08
2019-02-24T17:22:21.862Z,20.19
2019-02-24T17:24:52.738Z,19.60
2019-02-24T17:27:23.348Z,20.05
2019-02-24T17:29:53.864Z,20.83
2019-02-24T17:32:24.672Z,21.23
2019-02-24T17:34:55.406Z,21.20
2019-02-24T17:37:29.285Z,21.19
2019-02-24T17:40:00.093Z,21.68
2019-02-24T17:42:30.729Z,22.86
2019-02-24T17:45:01.854Z,23.29
2019-02-24T17:47:32.443Z,23.77
2019-02-24T17:50:03.321Z,23.87
2019-02-24T17:52:33.948Z,25.20
2019-02-24T17:55:04.927Z,25.11
2019-02-24T17:57:35.521Z,25.06
2019-02-24T18:00:10.193Z,24.47
2019-02-24T18:02:40.756Z,24.54
2019-02-24T18:05:11.989Z,24.39
2019-02-24T18:07:43.306Z,24.09
2019-02-24T18:10:13.935Z,24.67
2019-02-24T18:12:44.460Z,26.12
2019-02-24T18:15:15.156Z,26.70
2019-02-24T18:17:45.976Z,26.33
2019-02-24T18:20:16.881Z,25.22
2019-02-24T18:22:47.449Z,24.89
2019-02-24T18:25:18.007Z,25.91
2019-02-24T18:27:48.771Z,25.93
2019-02-24T18:30:22.120Z,25.39
2019-02-24T18:32:52.687Z,24.93
2019-02-24T18:35:23.347Z,24.65
2019-02-24T18:37:54.025Z,25.14
2019-02-24T18:40:24.582Z,25.23
2019-02-24T18:43:00.209Z,25.66
2019-02-24T18:45:27.694Z,25.19
2019-02-24T18:47:58.477Z,24.68
2019-02-24T18:50:28.996Z,25.00
2019-02-24T18:52:59.877Z,24.97
2019-02-24T18:55:30.480Z,25.03
2019-02-24T18:58:01.584Z,25.70
2019-02-24T19:00:32.648Z,25.30
2019-02-24T19:03:03.627Z,25.87
2019-02-24T19:05:34.395Z,26.34
2019-02-24T19:08:05.732Z,26.70
2019-02-24T19:10:36.267Z,27.28
2019-02-24T19:13:07.326Z,26.86
2019-02-24T19:15:43.463Z,26.57
2019-02-24T19:18:16.097Z,26.81
2019-02-24T19:20:49.681Z,26.96
2019-02-24T19:23:20.438Z,27.05
2019-02-24T19:25:51.681Z,27.00
2019-02-24T19:28:22.496Z,27.63
2019-02-24T19:30:53.007Z,27.50
2019-02-24T19:33:23.561Z,27.82
2019-02-24T19:35:54.108Z,28.06
2019-02-24T19:38:24.623Z,28.10
2019-02-24T19:40:55.143Z,28.82
2019-02-24T19:43:25.772Z,29.19
2019-02-24T19:45:56.296Z,30.31
2019-02-24T19:48:26.848Z,31.05
2019-02-24T19:50:57.684Z,31.51
2019-02-24T19:53:28.959Z,32.41
2019-02-24T19:55:59.742Z,32.83
2019-02-24T19:58:30.675Z,33.42
2019-02-24T20:01:02.168Z,32.56
2019-02-24T20:03:33.492Z,34.51
2019-02-24T20:06:04.028Z,35.89
2019-02-24T20:08:34.501Z,35.00
2019-02-24T20:11:16.678Z,34.09
2019-02-24T20:13:47.616Z,34.29
2019-02-24T20:16:18.250Z,37.43
2019-02-24T20:18:49.424Z,35.54
2019-02-24T20:21:20.023Z,35.15
2019-02-24T20:23:51.100Z,36.83
2019-02-24T20:26:21.893Z,35.89
2019-02-24T20:28:53.013Z,36.76
2019-02-24T20:31:24.261Z,37.26
2019-02-24T20:33:55.341Z,38.03
2019-02-24T20:36:26.166Z,38.32
2019-02-24T20:38:56.724Z,38.94
2019-02-24T20:41:27.807Z,37.94
2019-02-24T20:43:58.417Z,37.68
2019-02-24T20:46:29.335Z,38.28
2019-02-24T20:49:00.419Z,38.16
2019-02-24T20:51:31.429Z,37.79
2019-02-24T20:54:02.442Z,36.81
2019-02-24T20:56:33.357Z,36.30
2019-02-24T20:59:04.713Z,35.06
2019-02-24T21:01:35.767Z,35.11
2019-02-24T21:04:06.321Z,34.64
2019-02-24T21:06:36.888Z,34.72
2019-02-24T21:09:09.793Z,34.37
2019-02-24T21:11:40.376Z,34.68
2019-02-24T21:14:10.925Z,34.12
2019-02-24T21:16:41.944Z,34.01
2019-02-24T21:19:12.626Z,33.36
2019-02-24T21:21:43.109Z,33.53
2019-02-24T21:24:13.723Z,33.62
2019-02-24T21:26:44.251Z,33.43
2019-02-24T21:29:14.998Z,33.76
2019-02-24T21:31:46.162Z,33.71
2019-02-24T21:34:16.989Z,33.57
2019-02-24T21:36:48.430Z,33.69
2019-02-24T21:39:18.981Z,34.13
2019-02-24T21:41:49.740Z,33.74
2019-02-24T21:44:20.215Z,34.16
2019-02-24T21:46:51.149Z,34.43
2019-02-24T21:49:22.066Z,34.63
2019-02-24T21:51:52.547Z,35.23
2019-02-24T21:54:23.361Z,35.13
2019-02-24T21:56:53.883Z,35.60
2019-02-24T21:59:24.375Z,35.94
2019-02-24T22:01:55.011Z,36.30
2019-02-24T22:04:26.071Z,36.32
2019-02-24T22:06:56.791Z,36.20
2019-02-24T22:09:27.378Z,36.35
2019-02-24T22:11:57.867Z,36.29
2019-02-24T22:14:28.409Z,36.65
2019-02-24T22:16:58.933Z,36.43
2019-02-24T22:19:29.428Z,36.28
2019-02-24T22:21:59.902Z,36.32
2019-02-24T22:24:30.755Z,36.34
2019-02-24T22:27:01.492Z,35.93
2019-02-24T22:29:32.621Z,36.16
2019-02-24T22:32:03.390Z,36.15
2019-02-24T22:34:33.882Z,36.25
2019-02-24T22:37:04.358Z,36.34
2019-02-24T22:39:34.932Z,36.12
2019-02-24T22:42:05.679Z,36.33
2019-02-24T22:44:36.429Z,36.24
2019-02-24T22:47:06.992Z,36.40
2019-02-24T22:49:37.529Z,36.87
2019-02-24T22:52:08.264Z,36.80
2019-02-24T22:54:39.058Z,36.26
2019-02-24T22:57:09.579Z,36.53
2019-02-24T22:59:40.047Z,36.41
2019-02-24T23:02:10.857Z,36.16
2019-02-24T23:04:41.694Z,36.86
2019-02-24T23:07:12.272Z,36.79
2019-02-24T23:09:43.011Z,37.20
2019-02-24T23:12:13.500Z,37.19
2019-02-24T23:14:44.816Z,38.07
2019-02-24T23:17:15.499Z,38.10
2019-02-24T23:19:46.233Z,37.99
2019-02-24T23:22:16.955Z,38.71
2019-02-24T23:24:47.498Z,37.97
2019-02-24T23:27:18.221Z,38.49
2019-02-24T23:29:49.253Z,38.65
2019-02-24T23:32:19.834Z,39.12
2019-02-24T23:34:50.293Z,38.16
2019-02-24T23:37:20.755Z,38.49
2019-02-24T23:39:51.254Z,38.96
2019-02-24T23:42:21.712Z,39.11
2019-02-24T23:44:52.221Z,38.81
2019-02-24T23:47:22.832Z,38.68
2019-02-24T23:49:53.300Z,38.18
2019-02-24T23:52:23.811Z,38.50
2019-02-24T23:54:54.378Z,38.31
2019-02-24T23:57:24.880Z,38.34
2019-02-24T23:59:55.665Z,38.35
